Firth, Idaho
Current Conditions -  °F | °C
As of 7:53 PM on Friday 24 Oct 2014 (Local Time) from KIDA Reporting Station
Clear Clear  
Wind Chill: 57°   Ceiling: Unl
Heat Index: 57°   Visibility: 10mi
Dew Point: 33°   Wind: 7mph
Humidity: 40%   Direction: 130°SE
Pressure: 30.1"   Gusts: NA
Location:  43.31°N, 112.18°W
Report Text: KIDA 250153Z AUTO 13006KT 10SM CLR 14/01 A3010 RMK AO2 SLP173 T01390006
Loading
Personal Weather Stations






























Interactive Weather Map
Tropical Storm Tracking
New forecast layout! Learn more

10-Day Weather Forecast

Advertisements
Track Severe Weather on mobile